Time;durP1;ratioP1;P1;durP2;ratioP2;P2;SDS_P1;SDS_P2;PMS_P1;PMS_P2;Temp;Humidity;BMP_temperature;BMP_pressure;BME280_temperature;BME280_humidity;BME280_pressure;Samples;Min_cycle;Max_cycle;Signal;HPM_P1;HPM_P2
2022/05/26 00:01:09;;;;;;;18.65;6.38;;;14.80;99.90;;;;;;5096635;28;20127;-60
2022/05/26 00:03:40;;;;;;;20.40;6.60;;;14.80;99.90;;;;;;5114099;28;20081;-61
2022/05/26 00:06:07;;;;;;;25.45;7.10;;;14.70;99.90;;;;;;5114990;28;20047;-61
2022/05/26 00:08:35;;;;;;;18.83;7.13;;;14.70;99.90;;;;;;5096252;28;20044;-59
2022/05/26 00:11:01;;;;;;;21.52;6.00;;;14.70;99.90;;;;;;5096705;28;20048;-60
2022/05/26 00:13:27;;;;;;;18.92;6.40;;;14.70;99.90;;;;;;5096783;28;20112;-61
2022/05/26 00:15:53;;;;;;;28.13;7.22;;;14.70;99.90;;;;;;5096472;28;20047;-60
2022/05/26 00:18:19;;;;;;;24.95;6.57;;;14.70;99.90;;;;;;5114593;28;20039;-60
2022/05/26 00:20:45;;;;;;;23.40;7.43;;;14.60;99.90;;;;;;5079266;28;20051;-59
2022/05/26 00:23:11;;;;;;;20.27;6.78;;;14.60;99.90;;;;;;5114393;28;20056;-60
2022/05/26 00:25:36;;;;;;;22.15;6.80;;;14.60;99.90;;;;;;5114132;28;20051;-60
2022/05/26 00:28:03;;;;;;;23.23;7.35;;;14.60;99.90;;;;;;5096445;28;20135;-60
2022/05/26 00:30:29;;;;;;;20.90;7.47;;;14.60;99.90;;;;;;5114533;28;20036;-59
2022/05/26 00:32:54;;;;;;;25.52;6.93;;;14.60;99.90;;;;;;5114125;28;20051;-60
2022/05/26 00:35:20;;;;;;;23.13;6.82;;;14.50;99.90;;;;;;5114343;28;20096;-60
2022/05/26 00:37:46;;;;;;;22.77;6.72;;;14.60;99.90;;;;;;5095914;28;20377;-60
2022/05/26 00:40:13;;;;;;;25.10;7.85;;;14.50;99.90;;;;;;5114470;28;20131;-60
2022/05/26 00:42:40;;;;;;;26.17;7.72;;;14.50;99.90;;;;;;5095700;28;20039;-61
2022/05/26 00:45:07;;;;;;;27.13;8.13;;;14.40;99.90;;;;;;5113816;28;20044;-60
2022/05/26 00:47:39;;;;;;;22.98;7.18;;;14.50;99.90;;;;;;5113895;28;20054;-60
2022/05/26 00:50:11;;;;;;;24.88;7.32;;;14.40;99.90;;;;;;5114250;28;20465;-61
2022/05/26 00:52:52;;;;;;;31.15;8.15;;;14.40;99.90;;;;;;5095637;28;20043;-60
2022/05/26 00:55:23;;;;;;;26.13;6.85;;;14.40;99.90;;;;;;5113830;28;20123;-61
2022/05/26 00:57:59;;;;;;;31.30;7.32;;;14.40;99.90;;;;;;5113665;28;20047;-62
2022/05/26 01:00:28;;;;;;;26.15;7.28;;;14.30;99.90;;;;;;5078798;28;20048;-60
2022/05/26 01:03:18;;;;;;;27.67;7.45;;;14.30;99.90;;;;;;5113526;28;20135;-61
2022/05/26 01:06:07;;;;;;;20.95;7.90;;;14.30;99.90;;;;;;5113486;28;20463;-60
2022/05/26 01:08:58;;;;;;;27.88;7.20;;;14.30;99.90;;;;;;5097549;28;20058;-61
2022/05/26 01:11:25;;;;;;;22.15;6.97;;;14.30;99.90;;;;;;5113829;28;20072;-61
2022/05/26 01:13:59;;;;;;;26.75;7.40;;;14.30;99.90;;;;;;5095139;28;20050;-60
2022/05/26 01:16:35;;;;;;;29.58;7.28;;;14.30;99.90;;;;;;5095420;28;20047;-61
2022/05/26 01:19:19;;;;;;;30.00;7.97;;;14.30;99.90;;;;;;5113107;28;20043;-59
2022/05/26 01:22:33;;;;;;;23.20;6.50;;;14.30;99.90;;;;;;5113123;28;20127;-60
2022/05/26 01:25:36;;;;;;;29.48;7.93;;;14.30;99.90;;;;;;5073671;28;20056;-60
2022/05/26 01:28:30;;;;;;;31.70;7.55;;;14.30;99.90;;;;;;5088624;28;20385;-60
2022/05/26 01:31:25;;;;;;;25.73;6.93;;;14.30;99.90;;;;;;5112929;28;20151;-61
2022/05/26 01:34:28;;;;;;;27.10;7.30;;;14.20;99.90;;;;;;5112935;28;20047;-61
2022/05/26 01:36:56;;;;;;;29.17;7.82;;;14.30;99.90;;;;;;5074013;28;20063;-60
2022/05/26 01:39:36;;;;;;;27.60;7.00;;;14.30;99.90;;;;;;5112895;28;20036;-60
2022/05/26 01:42:27;;;;;;;25.02;6.45;;;14.20;99.90;;;;;;5094754;28;20057;-60
2022/05/26 01:44:59;;;;;;;28.08;6.03;;;14.20;99.90;;;;;;5112567;28;20130;-61
2022/05/26 01:47:48;;;;;;;17.98;5.13;;;14.20;99.90;;;;;;5113046;28;20451;-60
2022/05/26 01:50:34;;;;;;;25.83;5.72;;;14.20;99.90;;;;;;5112963;28;20035;-60
2022/05/26 01:53:00;;;;;;;16.52;4.85;;;14.30;99.90;;;;;;5112645;28;20404;-60
2022/05/26 01:55:34;;;;;;;20.38;5.47;;;14.30;99.90;;;;;;5112825;28;20044;-60
2022/05/26 01:58:15;;;;;;;21.27;5.40;;;14.30;99.90;;;;;;5111818;28;20048;-60
2022/05/26 02:00:41;;;;;;;23.38;5.72;;;14.30;99.90;;;;;;5112662;28;20039;-60
2022/05/26 02:03:11;;;;;;;26.50;5.82;;;14.30;99.90;;;;;;5112409;28;20133;-59
2022/05/26 02:06:12;;;;;;;26.48;5.97;;;14.30;99.90;;;;;;5112710;28;20046;-60
2022/05/26 02:08:43;;;;;;;18.60;5.32;;;14.30;99.90;;;;;;5112582;28;20051;-60
2022/05/26 02:11:12;;;;;;;20.88;5.97;;;14.30;99.90;;;;;;5111796;28;20039;-60
2022/05/26 02:13:51;;;;;;;25.08;5.97;;;14.30;99.90;;;;;;5094582;28;20051;-61
2022/05/26 02:16:36;;;;;;;23.83;6.00;;;14.30;99.90;;;;;;5112614;28;20050;-59
2022/05/26 02:19:37;;;;;;;21.00;5.95;;;14.20;99.90;;;;;;5111904;28;20043;-61
2022/05/26 02:22:17;;;;;;;24.50;5.97;;;14.20;99.90;;;;;;5040670;28;20165;-60
2022/05/26 02:24:53;;;;;;;26.98;6.05;;;14.20;99.90;;;;;;5094392;28;20060;-60
2022/05/26 02:27:19;;;;;;;27.77;6.88;;;14.20;99.90;;;;;;5077498;28;20047;-61
2022/05/26 02:29:52;;;;;;;21.70;6.13;;;14.20;99.90;;;;;;5112137;28;20046;-61
2022/05/26 02:32:26;;;;;;;27.48;6.68;;;14.20;99.90;;;;;;5112307;28;20070;-60
2022/05/26 02:34:54;;;;;;;23.27;5.90;;;14.10;99.90;;;;;;5093818;28;20397;-59
2022/05/26 02:37:23;;;;;;;27.10;5.63;;;14.10;99.90;;;;;;5112176;28;20047;-60
2022/05/26 02:39:49;;;;;;;25.65;5.68;;;14.10;99.90;;;;;;5111974;28;20044;-59
2022/05/26 02:42:15;;;;;;;20.85;5.32;;;14.10;99.90;;;;;;5112123;28;20043;-59
2022/05/26 02:44:42;;;;;;;31.25;6.30;;;14.10;99.90;;;;;;5111828;28;20561;-60
2022/05/26 02:47:28;;;;;;;24.15;5.63;;;14.10;99.90;;;;;;5093541;28;20044;-60
2022/05/26 02:50:06;;;;;;;23.10;5.30;;;14.10;99.90;;;;;;5111506;28;20104;-60
2022/05/26 02:52:47;;;;;;;18.33;5.45;;;14.10;99.90;;;;;;5112029;28;20119;-60
2022/05/26 02:55:27;;;;;;;22.70;5.03;;;14.00;99.90;;;;;;5111726;28;20044;-60
2022/05/26 02:57:59;;;;;;;21.45;5.88;;;14.00;99.90;;;;;;5111701;28;20126;-61
2022/05/26 03:00:46;;;;;;;18.23;5.40;;;14.00;99.90;;;;;;5111983;28;20040;-60
2022/05/26 03:03:26;;;;;;;23.42;5.38;;;14.00;99.90;;;;;;5076098;28;20047;-61
2022/05/26 03:06:07;;;;;;;26.92;5.65;;;13.90;99.90;;;;;;5112348;28;20058;-60
2022/05/26 03:08:37;;;;;;;13.95;4.38;;;13.90;99.90;;;;;;5113061;28;20477;-60
2022/05/26 03:11:22;;;;;;;22.98;5.30;;;13.90;99.90;;;;;;5115906;28;20039;-61
2022/05/26 03:13:50;;;;;;;15.57;4.28;;;13.90;99.90;;;;;;5115707;28;20456;-61
2022/05/26 03:16:16;;;;;;;22.00;5.53;;;13.80;99.90;;;;;;5115563;28;20043;-60
2022/05/26 03:18:41;;;;;;;19.00;4.80;;;13.80;99.90;;;;;;5115813;28;20446;-61
2022/05/26 03:21:08;;;;;;;22.33;5.10;;;13.80;99.90;;;;;;5080310;28;20048;-60
2022/05/26 03:23:36;;;;;;;23.50;5.40;;;13.80;99.90;;;;;;5097786;28;20058;-60
2022/05/26 03:26:03;;;;;;;22.95;5.07;;;13.80;99.90;;;;;;5115406;28;20051;-60
2022/05/26 03:28:30;;;;;;;18.15;4.32;;;13.80;99.90;;;;;;5115490;28;20048;-60
2022/05/26 03:30:56;;;;;;;18.13;4.15;;;13.80;99.90;;;;;;5115260;28;20066;-64
2022/05/26 03:33:22;;;;;;;19.27;4.20;;;13.80;99.90;;;;;;5097039;28;20043;-59
2022/05/26 03:41:21;;;;;;;13.82;5.00;;;13.70;99.90;;;;;;5115024;28;20044;-60
2022/05/26 03:43:55;;;;;;;13.93;4.20;;;13.60;99.90;;;;;;5115098;28;20063;-60
2022/05/26 03:46:20;;;;;;;19.50;5.00;;;13.60;99.90;;;;;;5096864;28;20054;-60
2022/05/26 03:48:46;;;;;;;19.80;3.92;;;13.60;99.90;;;;;;5114891;28;20404;-60
2022/05/26 03:51:12;;;;;;;16.92;4.25;;;13.60;99.90;;;;;;5114896;28;20476;-61
2022/05/26 03:53:38;;;;;;;15.13;4.07;;;13.60;99.90;;;;;;5115188;28;20051;-61
2022/05/26 03:56:05;;;;;;;14.27;4.07;;;13.60;99.90;;;;;;5079713;28;20050;-62
2022/05/26 03:58:32;;;;;;;13.20;3.53;;;13.60;99.90;;;;;;5115126;28;20048;-61
2022/05/26 04:01:02;;;;;;;12.93;3.10;;;13.50;99.90;;;;;;5114933;28;20054;-62
2022/05/26 04:03:28;;;;;;;17.05;4.00;;;13.60;99.90;;;;;;5096440;28;20055;-61
2022/05/26 04:05:55;;;;;;;13.45;3.50;;;13.60;99.90;;;;;;5115127;28;20446;-59
2022/05/26 04:08:22;;;;;;;12.00;3.35;;;13.50;99.90;;;;;;5096422;28;20346;-60
2022/05/26 04:10:47;;;;;;;11.15;3.22;;;13.60;99.90;;;;;;5114858;28;20043;-61
2022/05/26 04:13:13;;;;;;;13.10;2.92;;;13.60;99.90;;;;;;5114267;28;20048;-60
2022/05/26 04:15:39;;;;;;;15.90;3.03;;;13.60;99.90;;;;;;5096410;28;20048;-60
2022/05/26 04:18:04;;;;;;;13.00;2.72;;;13.60;99.90;;;;;;5079377;28;20090;-60
2022/05/26 04:20:30;;;;;;;11.27;3.00;;;13.60;99.90;;;;;;5095651;28;20092;-60
2022/05/26 04:22:56;;;;;;;13.07;2.88;;;13.60;99.90;;;;;;5096470;28;20055;-61
2022/05/26 04:25:22;;;;;;;10.80;2.70;;;13.60;99.90;;;;;;5095873;28;20705;-61
2022/05/26 04:27:48;;;;;;;14.93;3.25;;;13.70;99.90;;;;;;5114424;28;20109;-60
2022/05/26 04:30:15;;;;;;;12.30;2.80;;;13.70;99.90;;;;;;5096116;28;20052;-61
2022/05/26 04:32:41;;;;;;;10.43;2.28;;;13.80;99.90;;;;;;5095756;28;20499;-60
2022/05/26 04:35:10;;;;;;;10.10;2.30;;;13.90;99.90;;;;;;5095646;28;20047;-60
2022/05/26 04:37:37;;;;;;;9.63;2.10;;;13.90;99.90;;;;;;5114120;28;20101;-60
2022/05/26 04:40:04;;;;;;;7.90;1.92;;;14.10;99.90;;;;;;5079160;28;20075;-60
2022/05/26 04:42:30;;;;;;;11.38;3.22;;;14.10;99.90;;;;;;5114156;28;20048;-60
2022/05/26 04:44:57;;;;;;;8.43;2.67;;;14.10;99.90;;;;;;5095908;28;20070;-60
2022/05/26 04:47:22;;;;;;;9.85;2.30;;;14.50;99.90;;;;;;5113844;28;20401;-60
2022/05/26 04:49:49;;;;;;;9.52;2.20;;;15.10;99.90;;;;;;5113991;28;20176;-61
2022/05/26 04:52:17;;;;;;;8.52;2.08;;;15.90;99.90;;;;;;5095581;28;20043;-61
2022/05/26 04:54:44;;;;;;;9.55;2.30;;;16.70;99.90;;;;;;5114117;28;20045;-61
2022/05/26 04:57:11;;;;;;;10.25;2.65;;;17.40;99.90;;;;;;5113491;28;20456;-61
2022/05/26 04:59:37;;;;;;;9.20;1.90;;;17.90;99.90;;;;;;5113619;28;20092;-60
2022/05/26 05:02:04;;;;;;;10.27;1.90;;;18.40;99.90;;;;;;5113329;28;20083;-60
2022/05/26 05:04:30;;;;;;;6.88;2.00;;;19.00;99.90;;;;;;5095467;28;20091;-60
2022/05/26 05:06:56;;;;;;;11.98;2.15;;;19.30;99.90;;;;;;5095566;28;20122;-61
2022/05/26 05:09:23;;;;;;;7.72;2.25;;;19.90;99.90;;;;;;5113384;28;20500;-61
2022/05/26 05:11:48;;;;;;;10.40;2.75;;;20.30;99.90;;;;;;5113526;28;20031;-61
2022/05/26 05:14:14;;;;;;;6.80;2.00;;;20.90;99.90;;;;;;5113285;28;20043;-61
2022/05/26 05:16:42;;;;;;;7.55;1.90;;;21.40;99.90;;;;;;5095191;28;20044;-61
2022/05/26 05:19:09;;;;;;;6.50;2.13;;;21.90;99.90;;;;;;5113374;28;20046;-60
2022/05/26 05:21:41;;;;;;;10.82;1.88;;;22.20;99.90;;;;;;5078593;28;20054;-61
2022/05/26 05:24:15;;;;;;;8.05;2.03;;;22.80;99.70;;;;;;5095372;28;20047;-61
2022/05/26 05:26:45;;;;;;;6.88;1.92;;;23.30;99.10;;;;;;5094993;28;20105;-61
2022/05/26 05:29:15;;;;;;;9.45;2.00;;;23.70;97.10;;;;;;5094648;28;20083;-64
2022/05/26 05:31:50;;;;;;;6.35;1.98;;;24.10;97.00;;;;;;5112428;28;20167;-61
2022/05/26 05:34:31;;;;;;;6.55;1.98;;;24.60;96.20;;;;;;5112963;28;20066;-62
2022/05/26 05:36:59;;;;;;;6.85;1.80;;;24.80;95.00;;;;;;5112794;28;20048;-61
2022/05/26 05:39:25;;;;;;;6.97;2.00;;;24.90;94.50;;;;;;5077741;28;20051;-62
2022/05/26 05:41:51;;;;;;;4.63;1.80;;;24.60;93.60;;;;;;5094938;28;20455;-61
2022/05/26 05:44:17;;;;;;;6.55;1.58;;;24.70;93.60;;;;;;5112285;28;20585;-62
2022/05/26 05:46:57;;;;;;;5.47;1.83;;;24.60;93.70;;;;;;5077629;28;20040;-61
2022/05/26 05:49:28;;;;;;;7.43;1.60;;;24.70;93.20;;;;;;5112544;28;20086;-61
2022/05/26 05:51:55;;;;;;;5.15;1.67;;;25.00;93.40;;;;;;5094733;28;20051;-62
2022/05/26 05:54:22;;;;;;;10.43;2.45;;;24.90;92.80;;;;;;5112461;28;20066;-61
2022/05/26 05:56:48;;;;;;;8.13;2.13;;;24.80;93.20;;;;;;5112684;28;20043;-61
2022/05/26 05:59:14;;;;;;;6.10;1.70;;;25.10;92.60;;;;;;5112405;28;20036;-61
2022/05/26 06:01:40;;;;;;;5.50;1.50;;;25.30;92.10;;;;;;5112492;28;20078;-60
2022/05/26 06:04:06;;;;;;;6.05;1.60;;;25.00;92.60;;;;;;5094157;28;20518;-64
2022/05/26 06:06:41;;;;;;;7.82;1.55;;;24.80;92.20;;;;;;5112232;28;20184;-61
2022/05/26 06:09:10;;;;;;;5.35;1.58;;;25.10;92.20;;;;;;5112234;28;20481;-61
2022/05/26 06:11:36;;;;;;;8.07;2.10;;;25.50;91.80;;;;;;5111977;28;20047;-61
2022/05/26 06:14:03;;;;;;;6.85;2.22;;;25.40;91.10;;;;;;5112439;28;20048;-61
2022/05/26 06:16:29;;;;;;;8.13;2.00;;;25.40;92.00;;;;;;5093915;28;20082;-61
2022/05/26 06:18:55;;;;;;;6.70;1.65;;;25.30;91.30;;;;;;5112291;28;20054;-61
2022/05/26 06:21:21;;;;;;;6.38;1.67;;;25.50;91.10;;;;;;5093555;28;20116;-60
2022/05/26 06:23:48;;;;;;;9.80;1.90;;;25.90;91.10;;;;;;5112085;28;20092;-61
2022/05/26 06:26:13;;;;;;;6.40;1.73;;;26.20;90.90;;;;;;5094172;28;20054;-61
2022/05/26 06:31:23;;;;;;;5.82;1.70;;;26.20;91.10;;;;;;5096522;28;20043;-61
2022/05/26 06:39:09;;;;;;;6.15;1.90;;;26.20;89.40;;;;;;5111947;28;20051;-61
2022/05/26 06:44:19;;;;;;;6.60;1.70;;;25.60;88.80;;;;;;5111389;28;20055;-61
2022/05/26 06:46:45;;;;;;;7.20;1.80;;;24.80;90.10;;;;;;5111882;28;20039;-60
2022/05/26 06:49:11;;;;;;;5.95;1.50;;;23.80;91.10;;;;;;5093576;28;20057;-60
2022/05/26 06:51:39;;;;;;;4.55;1.60;;;23.20;91.70;;;;;;5111362;28;20047;-60
2022/05/26 06:54:05;;;;;;;4.93;1.45;;;22.40;92.40;;;;;;5111723;28;20521;-61
2022/05/26 06:56:31;;;;;;;3.42;1.30;;;21.70;93.30;;;;;;5111417;28;20047;-61
2022/05/26 06:58:57;;;;;;;7.80;1.60;;;21.30;93.70;;;;;;5093371;28;20104;-61
2022/05/26 07:01:23;;;;;;;6.20;1.60;;;21.10;94.60;;;;;;5093271;28;20389;-61
2022/05/26 07:03:49;;;;;;;6.75;1.60;;;21.00;94.90;;;;;;5111756;28;20400;-62
2022/05/26 07:06:16;;;;;;;5.03;1.48;;;20.90;95.00;;;;;;5093518;28;20079;-61
2022/05/26 07:08:44;;;;;;;8.95;1.75;;;20.90;95.30;;;;;;5111245;28;20051;-61
2022/05/26 07:11:10;;;;;;;8.23;1.73;;;20.80;95.80;;;;;;5093500;28;20098;-60
2022/05/26 07:13:36;;;;;;;6.75;1.90;;;20.50;95.70;;;;;;5093377;28;20052;-60
2022/05/26 07:16:01;;;;;;;5.15;1.70;;;20.40;96.20;;;;;;5111644;28;20044;-60
2022/05/26 07:18:27;;;;;;;4.80;1.50;;;20.00;96.50;;;;;;5093131;28;20101;-61
2022/05/26 07:20:53;;;;;;;8.13;1.63;;;19.80;97.00;;;;;;5093340;28;20092;-61
2022/05/26 07:23:18;;;;;;;6.40;2.03;;;19.60;97.50;;;;;;5093679;28;20051;-60
2022/05/26 07:25:45;;;;;;;6.25;1.42;;;19.50;98.10;;;;;;5111325;28;20128;-60
2022/05/26 07:28:14;;;;;;;10.05;1.88;;;19.40;98.50;;;;;;5111475;28;20275;-60
2022/05/26 07:30:41;;;;;;;4.85;1.60;;;19.40;97.90;;;;;;5092983;28;20052;-60
2022/05/26 07:33:07;;;;;;;5.55;1.55;;;19.70;98.30;;;;;;5111428;28;20512;-61
2022/05/26 07:35:33;;;;;;;6.38;1.58;;;20.30;97.90;;;;;;5111106;28;20043;-61
2022/05/26 07:43:32;;;;;;;7.53;1.55;;;20.70;96.80;;;;;;5111158;28;20054;-61
2022/05/26 07:45:58;;;;;;;6.70;1.60;;;20.80;96.80;;;;;;5111377;28;20439;-60
2022/05/26 07:48:23;;;;;;;4.32;1.35;;;20.80;96.90;;;;;;5111373;28;20128;-61
2022/05/26 07:50:49;;;;;;;3.72;1.42;;;20.80;97.00;;;;;;5092804;28;20050;-60
2022/05/26 07:53:15;;;;;;;9.15;2.03;;;20.60;97.10;;;;;;5093141;28;20039;-61
2022/05/26 07:55:42;;;;;;;8.50;1.75;;;20.20;97.50;;;;;;5111959;28;20043;-61
2022/05/26 07:58:12;;;;;;;5.93;1.60;;;20.30;97.80;;;;;;5115384;28;20058;-61
2022/05/26 08:00:39;;;;;;;5.88;1.83;;;20.10;97.40;;;;;;5096466;28;20104;-61
2022/05/26 08:03:05;;;;;;;8.50;1.70;;;20.10;97.50;;;;;;5114926;28;20122;-61
2022/05/26 08:05:32;;;;;;;6.35;1.73;;;19.70;97.40;;;;;;5114680;28;20070;-60
2022/05/26 08:07:58;;;;;;;7.13;1.83;;;19.70;97.60;;;;;;5114928;28;20051;-61
2022/05/26 08:10:24;;;;;;;8.07;1.85;;;19.50;97.70;;;;;;5114826;28;20040;-61
2022/05/26 08:12:50;;;;;;;4.65;1.48;;;19.60;97.80;;;;;;5096444;28;20039;-61
2022/05/26 08:15:16;;;;;;;5.68;1.52;;;19.50;97.90;;;;;;5096549;28;20052;-61
2022/05/26 08:17:42;;;;;;;7.93;1.58;;;19.60;97.80;;;;;;5096154;28;20104;-61
2022/05/26 08:20:08;;;;;;;5.43;1.58;;;19.60;96.90;;;;;;5114635;28;20035;-61
2022/05/26 08:22:34;;;;;;;4.47;1.40;;;19.70;97.40;;;;;;5114756;28;20051;-61
2022/05/26 08:25:00;;;;;;;9.23;1.67;;;19.60;96.80;;;;;;5114500;28;20043;-61
2022/05/26 08:27:26;;;;;;;6.45;1.60;;;19.70;97.00;;;;;;5114589;28;20425;-61
2022/05/26 08:29:54;;;;;;;4.15;1.42;;;19.80;97.20;;;;;;5114093;28;20135;-60
2022/05/26 08:32:21;;;;;;;5.57;1.55;;;19.90;97.50;;;;;;5079475;28;20079;-61
2022/05/26 08:34:47;;;;;;;6.00;1.70;;;20.00;97.40;;;;;;5113913;28;20054;-60
2022/05/26 08:37:19;;;;;;;9.07;2.08;;;20.40;96.90;;;;;;5096002;28;20105;-60
2022/05/26 08:39:45;;;;;;;6.50;1.60;;;21.20;96.50;;;;;;5095783;28;20051;-59
2022/05/26 08:42:18;;;;;;;6.28;1.70;;;21.80;95.90;;;;;;5114310;28;20047;-60
2022/05/26 08:44:44;;;;;;;4.50;1.55;;;22.30;94.90;;;;;;5113844;28;20112;-60
2022/05/26 08:47:14;;;;;;;5.85;1.63;;;23.00;93.90;;;;;;5079187;28;20047;-60
2022/05/26 08:50:03;;;;;;;7.85;1.70;;;23.60;93.60;;;;;;5113749;28;20043;-61
2022/05/26 08:52:46;;;;;;;7.97;1.77;;;23.90;92.90;;;;;;5113999;28;20040;-60
2022/05/26 08:55:43;;;;;;;6.60;1.90;;;23.70;92.70;;;;;;5095686;28;20105;-61
2022/05/26 08:58:22;;;;;;;6.32;1.50;;;24.00;92.40;;;;;;5112734;28;20051;-61
2022/05/26 09:00:50;;;;;;;6.40;1.80;;;24.00;92.30;;;;;;5113285;28;20542;-61
2022/05/26 09:03:24;;;;;;;6.43;1.60;;;24.00;92.20;;;;;;5095413;28;20438;-61
2022/05/26 09:05:59;;;;;;;6.68;1.48;;;24.40;91.70;;;;;;5095125;28;20553;-62
2022/05/26 09:14:31;;;;;;;3.92;1.30;;;23.80;91.30;;;;;;5081680;28;20306;-62
2022/05/26 09:17:03;;;;;;;6.57;1.50;;;24.30;90.90;;;;;;5113262;28;20039;-61
2022/05/26 09:19:56;;;;;;;6.28;1.70;;;24.80;91.10;;;;;;5113489;28;20052;-62
2022/05/26 09:22:30;;;;;;;4.07;1.25;;;24.10;89.10;;;;;;5102629;28;20348;-62
2022/05/26 09:24:57;;;;;;;4.43;1.42;;;23.50;89.70;;;;;;5113359;28;20105;-61
2022/05/26 09:27:34;;;;;;;5.57;1.42;;;23.20;90.40;;;;;;5113270;28;20049;-60
2022/05/26 09:30:20;;;;;;;5.10;1.60;;;23.00;90.40;;;;;;5095091;28;20075;-61
2022/05/26 09:32:46;;;;;;;6.35;1.55;;;22.70;90.60;;;;;;5113011;28;20047;-60
2022/05/26 09:35:20;;;;;;;5.65;1.40;;;22.30;91.00;;;;;;5113313;28;20048;-61
2022/05/26 09:37:49;;;;;;;3.40;1.40;;;22.10;91.10;;;;;;5112880;28;20389;-61
2022/05/26 09:40:25;;;;;;;6.15;1.42;;;21.80;91.10;;;;;;5095033;28;20144;-60
2022/05/26 09:43:03;;;;;;;5.50;1.08;;;22.00;91.20;;;;;;5112812;28;20043;-61
2022/05/26 09:45:57;;;;;;;5.47;1.70;;;22.20;90.90;;;;;;5113129;28;20055;-60
2022/05/26 09:48:30;;;;;;;4.73;1.37;;;22.30;90.60;;;;;;5091025;28;20131;-61
2022/05/26 09:51:19;;;;;;;4.18;1.40;;;22.70;91.40;;;;;;5077801;28;20297;-61
2022/05/26 09:53:46;;;;;;;4.57;1.27;;;22.80;88.70;;;;;;5112626;28;20108;-61
2022/05/26 09:56:34;;;;;;;3.97;1.20;;;22.80;89.10;;;;;;5094816;28;20396;-61
2022/05/26 09:59:19;;;;;;;4.38;1.25;;;22.90;88.40;;;;;;5094551;28;20405;-60
2022/05/26 10:01:45;;;;;;;3.88;1.00;;;22.80;88.40;;;;;;5112391;28;20040;-61
2022/05/26 10:04:28;;;;;;;3.85;1.15;;;22.90;90.60;;;;;;5112585;28;20138;-60
2022/05/26 10:07:08;;;;;;;3.25;0.90;;;23.00;90.20;;;;;;5112384;28;20059;-61
2022/05/26 10:10:03;;;;;;;6.38;1.33;;;23.10;90.00;;;;;;5094653;28;20362;-61
2022/05/26 10:12:35;;;;;;;4.15;1.30;;;22.90;87.80;;;;;;5094573;28;20043;-60
2022/05/26 10:15:25;;;;;;;4.70;1.38;;;22.90;87.60;;;;;;5112212;28;20055;-61
2022/05/26 10:18:22;;;;;;;3.95;1.10;;;22.60;88.10;;;;;;5111653;28;20044;-61
2022/05/26 10:21:01;;;;;;;5.47;1.40;;;22.50;89.20;;;;;;5111498;28;20074;-63
2022/05/26 10:23:44;;;;;;;4.05;1.02;;;22.60;90.10;;;;;;5094296;28;20062;-60
2022/05/26 10:26:37;;;;;;;5.05;1.60;;;22.50;89.20;;;;;;5094138;28;20039;-60
2022/05/26 10:29:26;;;;;;;3.00;1.15;;;22.40;89.50;;;;;;5112078;28;20054;-60
2022/05/26 10:32:08;;;;;;;4.70;1.17;;;22.40;90.10;;;;;;5093795;28;20047;-61
2022/05/26 10:35:02;;;;;;;3.85;1.13;;;22.20;90.00;;;;;;5112120;28;20094;-61
2022/05/26 10:37:49;;;;;;;6.67;1.70;;;22.00;90.10;;;;;;5112131;28;20043;-61
2022/05/26 10:40:24;;;;;;;4.90;1.30;;;22.00;90.50;;;;;;5093896;28;20100;-61
2022/05/26 10:43:18;;;;;;;4.25;1.27;;;21.90;90.80;;;;;;5094247;28;20043;-61
2022/05/26 10:45:48;;;;;;;;;;;21.70;90.90;;;;;;5103085;28;20412;-61
2022/05/26 10:48:45;;;;;;;3.78;1.20;;;21.70;91.30;;;;;;5093742;28;19926;-60
2022/05/26 10:51:24;;;;;;;5.63;1.60;;;21.70;91.60;;;;;;5093483;28;20327;-61
2022/05/26 10:54:46;;;;;;;4.00;1.33;;;21.60;91.70;;;;;;5112030;28;20505;-62
2022/05/26 10:57:32;;;;;;;5.30;1.60;;;21.60;92.10;;;;;;5085987;28;20126;-62
2022/05/26 11:00:10;;;;;;;6.03;1.75;;;21.70;92.30;;;;;;5111538;28;20048;-61
2022/05/26 11:02:58;;;;;;;6.90;1.50;;;21.80;92.50;;;;;;5111076;28;20100;-61
2022/05/26 11:05:46;;;;;;;4.22;1.67;;;21.70;91.90;;;;;;5111726;28;20138;-61
2022/05/26 11:08:38;;;;;;;3.42;1.48;;;21.60;91.90;;;;;;5111456;28;20380;-61
2022/05/26 11:11:17;;;;;;;3.45;1.05;;;21.50;92.20;;;;;;5111354;28;20043;-61
2022/05/26 11:13:43;;;;;;;5.80;1.63;;;21.70;92.00;;;;;;5111710;28;20046;-61
2022/05/26 11:19:43;;;;;;;5.88;1.25;;;21.90;92.50;;;;;;5111387;28;20405;-61
2022/05/26 11:22:12;;;;;;;5.10;1.65;;;21.90;92.20;;;;;;5111215;28;20051;-61
2022/05/26 11:24:39;;;;;;;4.50;1.23;;;22.00;92.50;;;;;;5111633;28;20043;-62
2022/05/26 11:27:11;;;;;;;6.68;1.52;;;22.00;92.20;;;;;;5111404;28;20052;-61
2022/05/26 11:29:44;;;;;;;5.47;1.40;;;21.90;92.30;;;;;;5111320;28;20054;-61
2022/05/26 11:38:05;;;;;;;5.22;1.55;;;21.70;91.50;;;;;;5115205;28;20070;-61
2022/05/26 11:41:00;;;;;;;3.20;1.33;;;21.70;91.60;;;;;;5115270;28;20044;-62
2022/05/26 11:43:33;;;;;;;5.85;1.20;;;21.80;91.40;;;;;;5114976;28;20104;-60
2022/05/26 11:46:00;;;;;;;4.30;1.42;;;21.50;91.80;;;;;;5115126;28;20127;-61
2022/05/26 11:48:32;;;;;;;4.45;1.40;;;21.30;92.20;;;;;;5115312;28;20093;-61
2022/05/26 11:51:16;;;;;;;4.70;1.35;;;21.30;92.90;;;;;;5115211;28;20123;-61
2022/05/26 11:53:47;;;;;;;3.45;1.48;;;21.30;93.30;;;;;;5097281;28;20050;-61
2022/05/26 11:56:25;;;;;;;3.30;1.50;;;21.40;93.20;;;;;;5114834;28;20130;-60
2022/05/26 11:59:19;;;;;;;4.60;1.33;;;21.50;93.10;;;;;;5115207;28;20100;-60
2022/05/26 12:01:58;;;;;;;4.50;1.40;;;21.50;92.80;;;;;;5114927;28;20134;-60
2022/05/26 12:04:28;;;;;;;3.88;1.23;;;21.50;92.90;;;;;;5096680;28;20130;-61
2022/05/26 12:07:01;;;;;;;3.00;1.30;;;21.60;93.10;;;;;;5115018;28;20054;-61
2022/05/26 12:09:32;;;;;;;5.20;1.25;;;21.50;92.90;;;;;;5096956;28;20401;-61
2022/05/26 12:12:27;;;;;;;7.30;1.75;;;21.50;93.00;;;;;;5114863;28;20488;-60
2022/05/26 12:14:52;;;;;;;3.35;1.30;;;21.40;93.20;;;;;;5082912;28;20063;-60
2022/05/26 12:17:31;;;;;;;3.90;1.25;;;21.20;93.40;;;;;;5096482;28;20051;-60
2022/05/26 12:20:21;;;;;;;6.13;1.60;;;21.30;93.00;;;;;;5114698;28;20054;-61
2022/05/26 12:22:47;;;;;;;4.22;1.30;;;21.20;93.30;;;;;;5098586;28;20051;-61
2022/05/26 12:25:33;;;;;;;4.03;1.20;;;20.90;93.60;;;;;;5096313;28;20092;-61
2022/05/26 12:28:14;;;;;;;5.18;1.40;;;20.80;93.80;;;;;;5096454;28;20051;-61
2022/05/26 12:30:46;;;;;;;4.93;1.73;;;21.00;93.90;;;;;;5096404;28;20096;-62
2022/05/26 12:33:20;;;;;;;5.93;1.85;;;21.20;93.30;;;;;;5113757;28;20231;-62
2022/05/26 12:36:01;;;;;;;4.65;1.48;;;21.10;93.20;;;;;;5114828;28;20515;-61
2022/05/26 12:38:50;;;;;;;5.20;1.23;;;21.20;93.60;;;;;;5114304;28;20052;-62
2022/05/26 12:41:30;;;;;;;5.70;1.63;;;21.10;93.50;;;;;;5113528;28;20089;-61
2022/05/26 12:44:01;;;;;;;3.53;1.40;;;20.60;94.00;;;;;;5114286;28;20046;-61
2022/05/26 12:46:42;;;;;;;6.22;1.70;;;20.50;94.40;;;;;;5113952;28;20105;-61
2022/05/26 12:49:20;;;;;;;5.18;1.67;;;20.60;94.60;;;;;;5113826;28;20100;-61
2022/05/26 12:52:06;;;;;;;7.55;1.83;;;20.60;94.40;;;;;;5096095;28;20040;-61
2022/05/26 12:54:33;;;;;;;5.78;1.48;;;20.60;94.30;;;;;;5114185;28;20222;-61
2022/05/26 12:57:00;;;;;;;3.55;1.42;;;20.70;94.80;;;;;;5114067;28;20183;-61
2022/05/26 12:59:32;;;;;;;3.95;1.30;;;20.80;95.10;;;;;;5113516;28;20047;-61
2022/05/26 13:01:58;;;;;;;3.95;1.15;;;20.90;94.80;;;;;;5113631;28;20042;-62
2022/05/26 13:04:32;;;;;;;3.47;1.52;;;21.00;94.50;;;;;;5113355;28;20446;-60
2022/05/26 13:07:05;;;;;;;5.75;1.58;;;20.80;94.50;;;;;;5113747;28;20051;-61
2022/05/26 13:09:44;;;;;;;4.28;1.40;;;20.90;94.80;;;;;;5113457;28;20107;-61
2022/05/26 13:12:11;;;;;;;4.45;1.25;;;20.90;95.00;;;;;;5095295;28;20039;-62
2022/05/26 13:15:10;;;;;;;5.03;1.35;;;21.00;95.20;;;;;;5113752;28;20051;-61
2022/05/26 13:17:47;;;;;;;6.07;1.52;;;20.90;93.60;;;;;;5109003;28;20124;-61
2022/05/26 13:20:29;;;;;;;6.03;1.20;;;20.80;94.10;;;;;;5095272;28;20058;-61
2022/05/26 13:22:54;;;;;;;6.35;1.90;;;20.70;94.60;;;;;;5113704;28;20051;-61
2022/05/26 13:25:28;;;;;;;6.00;1.80;;;20.50;94.80;;;;;;5113042;28;20104;-61
2022/05/26 13:28:01;;;;;;;9.77;1.90;;;20.50;95.10;;;;;;5113511;28;20051;-61
2022/05/26 13:33:48;;;;;;;8.93;1.92;;;20.30;95.10;;;;;;5050053;28;20052;-61
2022/05/26 13:36:24;;;;;;;6.13;2.00;;;20.10;95.90;;;;;;5102216;28;20051;-61
2022/05/26 13:38:50;;;;;;;6.15;2.25;;;19.90;96.30;;;;;;5113191;28;20070;-62
2022/05/26 13:41:23;;;;;;;4.35;1.70;;;20.00;96.30;;;;;;5094356;28;20463;-61
2022/05/26 13:43:50;;;;;;;6.97;2.03;;;20.10;96.30;;;;;;5095078;28;20074;-60
2022/05/26 13:46:38;;;;;;;5.07;1.63;;;20.10;95.80;;;;;;5112242;28;20055;-60
2022/05/26 13:49:36;;;;;;;8.00;2.03;;;20.20;96.00;;;;;;5094787;28;20100;-61
2022/05/26 13:52:25;;;;;;;7.47;2.03;;;20.30;96.20;;;;;;5082359;28;20059;-61
2022/05/26 13:55:06;;;;;;;7.00;1.83;;;20.10;96.20;;;;;;5112099;28;20043;-61